Time;durP1;ratioP1;P1;durP2;ratioP2;P2;SDS_P1;SDS_P2;PMS_P1;PMS_P2;Temp;Humidity;BMP_temperature;BMP_pressure;BME280_temperature;BME280_humidity;BME280_pressure;Samples;Min_cycle;Max_cycle;Signal;HPM_P1;HPM_P2
2022/07/17 00:02:06;;;;;;;7.07;3.70;;;13.60;77.60;;;;;;5111337;28;20044;-79
2022/07/17 00:04:32;;;;;;;5.22;3.28;;;13.60;77.60;;;;;;5111225;28;20040;-74
2022/07/17 00:06:58;;;;;;;11.23;4.00;;;13.60;77.70;;;;;;5111224;28;20048;-72
2022/07/17 00:09:23;;;;;;;5.95;3.22;;;13.60;77.70;;;;;;5111450;28;20035;-74
2022/07/17 00:11:49;;;;;;;7.85;3.75;;;13.50;77.90;;;;;;5111372;28;20032;-75
2022/07/17 00:14:15;;;;;;;11.93;4.35;;;13.50;78.50;;;;;;5111470;28;20040;-72
2022/07/17 00:16:40;;;;;;;8.00;3.80;;;13.50;78.70;;;;;;5111124;28;20476;-75
2022/07/17 00:19:06;;;;;;;9.00;4.30;;;13.50;78.80;;;;;;5059550;28;20039;-75
2022/07/17 00:21:32;;;;;;;9.35;4.30;;;13.50;78.70;;;;;;5077366;28;20040;-72
2022/07/17 00:23:58;;;;;;;7.13;3.97;;;13.40;78.90;;;;;;5111105;28;20085;-74
2022/07/17 00:26:24;;;;;;;7.90;4.22;;;13.30;78.80;;;;;;5110703;28;20048;-77
2022/07/17 00:28:50;;;;;;;9.68;4.30;;;13.30;79.00;;;;;;5094062;28;20059;-77
2022/07/17 00:31:15;;;;;;;7.85;3.95;;;13.20;78.80;;;;;;5110808;28;20488;-74
2022/07/17 00:33:41;;;;;;;9.70;4.35;;;13.20;79.10;;;;;;5110633;28;20126;-75
2022/07/17 00:36:07;;;;;;;13.00;4.50;;;13.20;79.10;;;;;;5076931;28;20112;-76
2022/07/17 00:38:33;;;;;;;11.30;4.70;;;13.10;79.20;;;;;;5077183;28;20621;-73
2022/07/17 00:40:59;;;;;;;8.32;4.03;;;13.20;79.10;;;;;;5110510;28;20126;-74
2022/07/17 00:43:26;;;;;;;5.22;3.78;;;13.10;79.10;;;;;;5110445;28;20488;-75
2022/07/17 00:46:00;;;;;;;8.50;4.22;;;13.10;79.20;;;;;;5110409;28;20044;-75
2022/07/17 00:48:26;;;;;;;5.40;3.95;;;13.10;79.30;;;;;;5110703;28;20380;-74
2022/07/17 00:50:53;;;;;;;6.53;3.92;;;13.10;79.40;;;;;;5110689;28;20043;-76
2022/07/17 00:53:19;;;;;;;6.93;3.67;;;13.10;79.50;;;;;;5110121;28;20097;-74
2022/07/17 00:55:47;;;;;;;8.35;4.47;;;13.00;79.30;;;;;;5110661;28;20066;-74
2022/07/17 00:58:22;;;;;;;8.35;3.85;;;13.10;79.40;;;;;;5110619;28;20499;-77
2022/07/17 01:00:52;;;;;;;11.73;4.97;;;13.00;79.70;;;;;;5110310;28;20130;-74
2022/07/17 01:03:22;;;;;;;7.90;3.95;;;13.00;79.80;;;;;;5109895;28;20488;-73
2022/07/17 01:05:48;;;;;;;7.72;3.65;;;13.00;79.80;;;;;;5110103;28;20070;-75
2022/07/17 01:08:15;;;;;;;5.97;3.83;;;13.00;79.90;;;;;;5110358;28;20040;-73
2022/07/17 01:10:41;;;;;;;9.00;3.38;;;13.00;79.90;;;;;;5110347;28;20058;-72
2022/07/17 01:13:07;;;;;;;9.00;3.75;;;13.00;80.00;;;;;;5094203;28;20043;-73
2022/07/17 01:15:36;;;;;;;9.70;4.05;;;13.00;80.10;;;;;;5076466;28;20093;-72
2022/07/17 01:18:11;;;;;;;8.48;4.00;;;13.00;80.30;;;;;;5076295;28;20441;-77
2022/07/17 01:20:38;;;;;;;9.60;4.15;;;13.00;80.40;;;;;;5109798;28;20485;-77
2022/07/17 01:23:05;;;;;;;9.13;3.80;;;13.00;80.10;;;;;;5109956;28;20044;-75
2022/07/17 01:25:31;;;;;;;9.20;4.30;;;13.00;80.40;;;;;;5109605;28;20062;-74
2022/07/17 01:27:57;;;;;;;11.30;4.40;;;13.00;80.30;;;;;;5075968;28;20045;-74
2022/07/17 01:30:23;;;;;;;7.10;3.92;;;13.00;80.30;;;;;;5109526;28;20036;-74
2022/07/17 01:32:49;;;;;;;7.13;3.78;;;12.90;80.20;;;;;;5109642;28;20101;-74
2022/07/17 01:35:15;;;;;;;8.30;4.13;;;12.90;80.40;;;;;;5109742;28;20040;-73
2022/07/17 01:37:42;;;;;;;6.45;3.95;;;12.80;80.40;;;;;;5109627;28;20566;-75
2022/07/17 01:40:12;;;;;;;8.00;4.13;;;12.90;80.50;;;;;;5092532;28;20089;-77
2022/07/17 01:42:41;;;;;;;9.57;3.72;;;12.80;80.60;;;;;;5109644;28;20075;-73
2022/07/17 01:45:08;;;;;;;6.45;3.40;;;12.90;80.40;;;;;;5092519;28;20040;-74
2022/07/17 01:47:34;;;;;;;10.63;3.75;;;12.80;80.20;;;;;;5075595;28;20104;-72
2022/07/17 01:50:00;;;;;;;7.10;3.17;;;12.80;80.50;;;;;;5109584;28;20048;-73
2022/07/17 01:52:26;;;;;;;7.05;3.78;;;12.80;80.40;;;;;;5109101;28;20040;-75
2022/07/17 01:54:52;;;;;;;8.23;3.60;;;12.80;80.30;;;;;;5109024;28;20050;-75
2022/07/17 01:57:18;;;;;;;10.98;4.00;;;12.80;80.70;;;;;;5109312;28;20081;-75
2022/07/17 01:59:44;;;;;;;4.55;3.15;;;12.80;80.50;;;;;;5109475;28;20115;-75
2022/07/17 02:02:12;;;;;;;7.60;3.30;;;12.80;80.50;;;;;;5109152;28;20511;-75
2022/07/17 02:04:41;;;;;;;4.63;3.20;;;12.70;81.10;;;;;;5109135;28;20067;-75
2022/07/17 02:07:08;;;;;;;7.90;3.38;;;12.70;81.40;;;;;;5108939;28;20082;-73
2022/07/17 02:09:34;;;;;;;8.00;3.92;;;12.70;81.50;;;;;;5091884;28;20044;-74
2022/07/17 02:12:00;;;;;;;10.02;4.07;;;12.70;81.30;;;;;;5075689;28;20063;-73
2022/07/17 02:14:26;;;;;;;10.75;3.83;;;12.70;81.30;;;;;;5109108;28;20032;-77
2022/07/17 02:16:52;;;;;;;5.40;3.10;;;12.70;81.20;;;;;;5109457;28;20147;-73
2022/07/17 02:19:18;;;;;;;7.22;3.67;;;12.70;81.20;;;;;;5109110;28;20522;-75
2022/07/17 02:21:44;;;;;;;5.70;3.28;;;12.70;81.30;;;;;;5109149;28;20044;-73
2022/07/17 02:24:09;;;;;;;6.05;3.25;;;12.70;81.40;;;;;;5075747;28;20044;-78
2022/07/17 02:26:35;;;;;;;7.20;3.80;;;12.70;81.50;;;;;;5112385;28;20052;-76
2022/07/17 02:29:01;;;;;;;5.78;3.60;;;12.70;81.70;;;;;;5112112;28;20039;-72
2022/07/17 02:31:27;;;;;;;10.20;3.50;;;12.60;81.90;;;;;;5112338;28;20040;-76
2022/07/17 02:33:52;;;;;;;5.75;3.42;;;12.50;82.30;;;;;;5112503;28;20059;-74
2022/07/17 02:36:18;;;;;;;9.55;3.90;;;12.50;81.60;;;;;;5112392;28;20097;-73
2022/07/17 02:38:44;;;;;;;8.05;4.03;;;12.50;81.60;;;;;;5112356;28;20051;-78
2022/07/17 02:41:10;;;;;;;8.60;4.05;;;12.30;81.90;;;;;;5112541;28;20044;-71
2022/07/17 02:43:36;;;;;;;11.93;4.63;;;12.30;81.80;;;;;;5115730;28;20506;-79
2022/07/17 02:46:02;;;;;;;7.13;4.25;;;12.20;82.80;;;;;;5116376;28;20433;-79
2022/07/17 02:48:28;;;;;;;8.93;4.32;;;12.20;82.00;;;;;;5082439;28;20039;-73
2022/07/17 02:50:53;;;;;;;8.73;4.40;;;12.20;82.30;;;;;;5082351;28;20084;-73
2022/07/17 02:53:19;;;;;;;5.72;3.80;;;12.20;82.20;;;;;;5116330;28;20086;-73
2022/07/17 02:55:45;;;;;;;6.93;3.63;;;12.20;82.70;;;;;;5116390;28;20058;-78
2022/07/17 02:58:11;;;;;;;6.25;3.75;;;12.20;83.20;;;;;;5116267;28;20436;-73
2022/07/17 03:00:37;;;;;;;6.75;4.30;;;12.20;82.50;;;;;;5116005;28;20121;-73
2022/07/17 03:03:03;;;;;;;6.97;3.80;;;12.30;82.30;;;;;;5116237;28;20193;-72
2022/07/17 03:05:29;;;;;;;9.95;3.92;;;12.30;82.30;;;;;;5081921;28;20059;-76
2022/07/17 03:07:55;;;;;;;8.65;4.30;;;12.30;82.80;;;;;;5115736;28;20051;-74
2022/07/17 03:10:21;;;;;;;10.18;3.47;;;12.30;82.80;;;;;;5115777;28;20050;-74
2022/07/17 03:12:46;;;;;;;8.90;3.70;;;12.30;82.40;;;;;;5115787;28;20039;-72
2022/07/17 03:15:12;;;;;;;7.43;3.75;;;12.30;82.60;;;;;;5115819;28;20124;-76
2022/07/17 03:17:39;;;;;;;9.77;4.32;;;12.40;82.80;;;;;;5081653;28;20042;-73
2022/07/17 03:20:06;;;;;;;7.75;3.65;;;12.40;82.50;;;;;;5115699;28;20387;-74
2022/07/17 03:22:31;;;;;;;7.93;4.43;;;12.50;82.50;;;;;;5115587;28;20054;-76
2022/07/17 03:24:57;;;;;;;7.32;4.63;;;12.50;82.70;;;;;;5098318;28;20059;-77
2022/07/17 03:27:23;;;;;;;7.78;4.00;;;12.50;82.60;;;;;;5115308;28;20121;-73
2022/07/17 03:29:48;;;;;;;13.35;4.43;;;12.50;82.70;;;;;;5115249;28;20040;-75
2022/07/17 03:32:14;;;;;;;8.15;3.80;;;12.60;82.90;;;;;;5115285;28;20067;-74
2022/07/17 03:34:40;;;;;;;6.78;2.85;;;12.70;83.20;;;;;;5115679;28;20045;-75
2022/07/17 03:37:06;;;;;;;7.40;3.30;;;12.60;83.00;;;;;;5115279;28;20051;-76
2022/07/17 03:39:31;;;;;;;5.60;3.42;;;12.60;83.00;;;;;;5114902;28;20475;-71
2022/07/17 03:41:57;;;;;;;6.72;3.55;;;12.60;83.00;;;;;;5114914;28;20082;-74
2022/07/17 03:44:23;;;;;;;6.85;3.70;;;12.60;82.90;;;;;;5114894;28;20043;-77
2022/07/17 03:46:49;;;;;;;5.63;3.42;;;12.60;83.00;;;;;;5114826;28;20047;-74
2022/07/17 03:49:15;;;;;;;8.13;4.10;;;12.60;83.30;;;;;;5115115;28;20468;-77
2022/07/17 03:51:41;;;;;;;6.63;3.90;;;12.60;83.70;;;;;;5114792;28;20040;-74
2022/07/17 03:54:07;;;;;;;7.13;3.78;;;12.60;83.60;;;;;;5114683;28;20051;-74
2022/07/17 03:56:32;;;;;;;7.22;3.67;;;12.60;83.40;;;;;;5114678;28;20384;-73
2022/07/17 03:58:58;;;;;;;5.47;3.13;;;12.70;83.50;;;;;;5114866;28;20122;-77
2022/07/17 04:01:24;;;;;;;7.65;3.97;;;12.70;83.60;;;;;;5114825;28;20042;-75
2022/07/17 04:03:49;;;;;;;6.18;3.83;;;12.70;84.00;;;;;;5114465;28;20135;-74
2022/07/17 04:06:15;;;;;;;9.25;4.25;;;12.70;83.90;;;;;;5080448;28;20079;-73
2022/07/17 04:08:41;;;;;;;9.82;4.25;;;12.80;84.00;;;;;;5114587;28;20074;-78
2022/07/17 04:11:07;;;;;;;9.20;4.10;;;12.80;83.90;;;;;;5080967;28;20433;-76
2022/07/17 04:13:32;;;;;;;8.27;4.00;;;12.90;83.60;;;;;;5080631;28;20085;-72
2022/07/17 04:15:59;;;;;;;7.65;3.78;;;12.90;84.00;;;;;;5114651;28;20100;-78
2022/07/17 04:18:30;;;;;;;6.78;3.83;;;12.90;84.00;;;;;;5115655;28;20391;-72
2022/07/17 04:20:59;;;;;;;7.22;3.90;;;12.90;84.20;;;;;;5097510;28;20396;-77
2022/07/17 04:23:26;;;;;;;6.30;3.28;;;12.90;84.20;;;;;;5114546;28;20414;-72
2022/07/17 04:25:53;;;;;;;7.75;4.13;;;13.00;84.10;;;;;;5113900;28;20051;-75
2022/07/17 04:28:18;;;;;;;6.60;3.97;;;13.00;83.80;;;;;;5114371;28;20537;-73
2022/07/17 04:30:44;;;;;;;6.32;3.75;;;13.10;83.90;;;;;;5114479;28;20075;-75
2022/07/17 04:33:10;;;;;;;6.40;3.88;;;13.20;83.90;;;;;;5114216;28;20353;-74
2022/07/17 04:35:36;;;;;;;7.30;4.32;;;13.20;84.40;;;;;;5114221;28;20096;-75
2022/07/17 04:38:04;;;;;;;11.05;5.30;;;13.30;84.10;;;;;;5114314;28;20118;-77
2022/07/17 04:40:30;;;;;;;6.68;4.13;;;13.40;84.10;;;;;;5114331;28;20436;-73
2022/07/17 04:42:55;;;;;;;10.30;4.72;;;13.40;84.30;;;;;;5114190;28;20044;-75
2022/07/17 04:45:21;;;;;;;7.32;4.45;;;13.50;84.20;;;;;;5114110;28;20051;-74
2022/07/17 04:47:47;;;;;;;9.93;4.93;;;13.50;84.10;;;;;;5114036;28;20035;-73
2022/07/17 04:50:12;;;;;;;9.68;4.60;;;13.50;84.50;;;;;;5113923;28;20395;-73
2022/07/17 04:52:38;;;;;;;7.65;4.47;;;13.60;84.40;;;;;;5079825;28;20455;-78
2022/07/17 04:55:04;;;;;;;11.00;4.75;;;13.70;84.70;;;;;;5079845;28;20035;-73
2022/07/17 04:57:30;;;;;;;10.10;5.13;;;13.70;84.40;;;;;;5079972;28;20086;-73
2022/07/17 04:59:56;;;;;;;9.50;5.13;;;13.70;84.30;;;;;;5113765;28;20079;-76
2022/07/17 05:02:22;;;;;;;11.20;4.22;;;13.70;84.30;;;;;;5113674;28;20043;-71
2022/07/17 05:04:47;;;;;;;7.78;3.97;;;13.80;83.90;;;;;;5113132;28;20175;-74
2022/07/17 05:07:13;;;;;;;8.70;3.92;;;13.80;84.10;;;;;;5113621;28;20036;-72
2022/07/17 05:09:39;;;;;;;8.93;4.82;;;13.90;84.00;;;;;;5113800;28;20398;-77
2022/07/17 05:12:05;;;;;;;8.38;4.07;;;13.90;84.20;;;;;;5113391;28;20039;-75
2022/07/17 05:14:31;;;;;;;5.93;3.65;;;13.90;84.80;;;;;;5079877;28;20043;-73
2022/07/17 05:16:56;;;;;;;5.78;3.50;;;13.90;85.10;;;;;;5113391;28;20411;-78
2022/07/17 05:19:23;;;;;;;7.90;4.18;;;13.80;85.40;;;;;;5113309;28;20036;-75
2022/07/17 05:21:49;;;;;;;8.18;3.60;;;13.80;85.10;;;;;;5113357;28;20051;-75
2022/07/17 05:24:15;;;;;;;4.97;3.83;;;13.80;85.10;;;;;;5113100;28;20063;-74
2022/07/17 05:26:41;;;;;;;8.90;4.32;;;13.80;85.60;;;;;;5096274;28;20083;-73
2022/07/17 05:29:06;;;;;;;6.13;3.78;;;13.80;85.80;;;;;;5079422;28;20115;-73
2022/07/17 05:31:32;;;;;;;7.93;3.85;;;13.80;86.10;;;;;;5113197;28;20441;-74
2022/07/17 05:33:58;;;;;;;5.05;3.30;;;13.70;86.60;;;;;;5112910;28;20040;-72
2022/07/17 05:36:26;;;;;;;8.15;3.40;;;13.70;85.90;;;;;;5113169;28;20077;-75
2022/07/17 05:38:52;;;;;;;3.92;3.05;;;13.80;84.90;;;;;;5112890;28;20126;-77
2022/07/17 05:41:18;;;;;;;6.88;2.88;;;13.90;84.50;;;;;;5112915;28;20051;-76
2022/07/17 05:43:43;;;;;;;6.80;3.47;;;14.00;84.50;;;;;;5095821;28;20039;-77
2022/07/17 05:46:09;;;;;;;6.22;3.40;;;14.10;84.00;;;;;;5112749;28;20051;-73
2022/07/17 05:48:34;;;;;;;10.85;2.67;;;14.10;83.70;;;;;;5112970;28;20039;-75
2022/07/17 05:51:00;;;;;;;9.35;2.95;;;14.10;83.50;;;;;;5062311;28;20039;-73
2022/07/17 05:53:26;;;;;;;5.07;2.70;;;14.20;83.20;;;;;;5112906;28;20394;-78
2022/07/17 05:55:52;;;;;;;8.73;2.88;;;14.40;83.00;;;;;;5112962;28;20041;-75
2022/07/17 05:58:17;;;;;;;5.60;3.25;;;14.50;82.60;;;;;;5112707;28;20095;-75
2022/07/17 06:00:44;;;;;;;5.47;2.58;;;14.60;82.40;;;;;;5078944;28;20071;-74
2022/07/17 06:03:10;;;;;;;8.95;3.08;;;14.60;82.40;;;;;;5112568;28;20089;-74
2022/07/17 06:05:36;;;;;;;5.07;2.80;;;14.70;82.50;;;;;;5112465;28;20574;-75
2022/07/17 06:08:02;;;;;;;5.60;2.88;;;14.80;82.10;;;;;;5112468;28;20061;-73
2022/07/17 06:10:28;;;;;;;7.45;2.75;;;14.90;82.40;;;;;;5112994;28;20035;-74
2022/07/17 06:12:54;;;;;;;5.43;2.72;;;14.90;82.40;;;;;;5078537;28;20532;-74
2022/07/17 06:15:20;;;;;;;6.07;3.22;;;15.00;82.20;;;;;;5095467;28;20047;-75
2022/07/17 06:17:47;;;;;;;7.53;2.80;;;15.00;82.20;;;;;;5114754;28;20479;-73
2022/07/17 06:20:13;;;;;;;6.40;3.03;;;15.10;83.00;;;;;;5116636;28;20043;-73
2022/07/17 06:22:40;;;;;;;5.72;2.63;;;15.10;83.20;;;;;;5083121;28;20050;-73
2022/07/17 06:25:07;;;;;;;5.95;3.33;;;15.20;82.40;;;;;;5116623;28;20052;-75
2022/07/17 06:27:32;;;;;;;7.18;2.47;;;15.30;82.20;;;;;;5116486;28;20130;-76
2022/07/17 06:29:58;;;;;;;4.18;2.53;;;15.40;81.90;;;;;;5116619;28;20165;-73
2022/07/17 06:32:24;;;;;;;7.25;3.15;;;15.50;81.80;;;;;;5116794;28;20043;-76
2022/07/17 06:34:50;;;;;;;7.03;3.20;;;15.50;81.80;;;;;;5116659;28;20039;-75
2022/07/17 06:37:16;;;;;;;6.55;3.10;;;15.50;81.50;;;;;;5116719;28;20433;-76
2022/07/17 06:39:41;;;;;;;5.38;2.90;;;15.60;81.20;;;;;;5082603;28;20043;-74
2022/07/17 06:42:07;;;;;;;7.35;3.08;;;15.60;80.00;;;;;;5117484;28;20110;-72
2022/07/17 06:44:34;;;;;;;5.47;2.72;;;15.70;80.30;;;;;;5116416;28;20036;-76
2022/07/17 06:47:00;;;;;;;5.05;3.00;;;15.70;80.20;;;;;;5116170;28;20138;-76
2022/07/17 06:49:25;;;;;;;5.82;2.22;;;15.70;79.40;;;;;;5082394;28;20114;-74
2022/07/17 06:51:51;;;;;;;4.20;2.45;;;15.70;79.40;;;;;;5116129;28;20098;-75
2022/07/17 06:54:17;;;;;;;5.20;2.83;;;15.70;79.40;;;;;;5116332;28;20043;-74
2022/07/17 06:56:42;;;;;;;9.20;2.78;;;15.80;79.90;;;;;;5082188;28;20487;-73
2022/07/17 06:59:08;;;;;;;7.72;3.85;;;15.90;79.40;;;;;;5117144;28;20071;-75
2022/07/17 07:01:35;;;;;;;8.60;3.05;;;15.90;79.40;;;;;;5116057;28;20500;-73
2022/07/17 07:04:01;;;;;;;4.97;3.15;;;16.00;80.20;;;;;;5114996;28;20039;-75
2022/07/17 07:06:27;;;;;;;5.93;3.10;;;16.00;81.20;;;;;;5115802;28;20039;-76
2022/07/17 07:08:53;;;;;;;7.30;2.80;;;16.10;80.30;;;;;;5115901;28;20480;-74
2022/07/17 07:11:18;;;;;;;8.10;2.92;;;16.20;80.70;;;;;;5115754;28;20075;-76
2022/07/17 07:13:44;;;;;;;11.32;3.33;;;16.30;79.90;;;;;;5084366;27;20043;-77
2022/07/17 07:16:10;;;;;;;4.07;2.13;;;16.30;79.20;;;;;;5088197;27;20089;-75
2022/07/17 07:18:36;;;;;;;5.68;1.90;;;16.40;78.60;;;;;;5071933;27;20135;-77
2022/07/17 07:21:02;;;;;;;6.90;2.30;;;16.40;78.00;;;;;;5101461;27;20490;-73
2022/07/17 07:23:28;;;;;;;8.85;2.38;;;16.30;77.30;;;;;;5107760;27;20066;-75
2022/07/17 07:25:53;;;;;;;5.95;2.05;;;16.50;77.80;;;;;;5107566;27;20098;-75
2022/07/17 07:28:19;;;;;;;5.30;2.45;;;16.50;77.10;;;;;;5106076;27;20136;-74
2022/07/17 07:30:45;;;;;;;4.78;2.45;;;16.60;76.00;;;;;;5106034;27;20546;-76
2022/07/17 07:33:10;;;;;;;5.53;1.90;;;16.70;76.90;;;;;;5114727;27;20040;-76
2022/07/17 07:35:36;;;;;;;6.78;1.90;;;16.90;77.00;;;;;;5121795;27;20038;-75
2022/07/17 07:38:03;;;;;;;6.50;1.58;;;17.00;76.30;;;;;;5131209;27;20046;-74
2022/07/17 07:40:28;;;;;;;4.93;1.30;;;17.10;75.80;;;;;;5116660;27;20039;-75
2022/07/17 07:42:54;;;;;;;6.15;1.40;;;17.00;74.10;;;;;;5101730;27;20046;-74
2022/07/17 07:45:20;;;;;;;6.88;1.77;;;17.10;74.30;;;;;;5115647;27;20042;-75
2022/07/17 07:47:49;;;;;;;5.32;1.95;;;17.20;74.00;;;;;;5103101;27;21260;-76
2022/07/17 07:50:16;;;;;;;5.75;1.40;;;17.40;73.30;;;;;;5103530;27;20051;-76
2022/07/17 07:52:43;;;;;;;3.90;1.40;;;17.50;72.90;;;;;;5101110;27;20093;-72
2022/07/17 07:55:14;;;;;;;7.13;1.23;;;17.60;72.40;;;;;;5117012;27;20039;-74
2022/07/17 07:57:40;;;;;;;5.53;1.33;;;17.70;71.80;;;;;;5101176;27;20128;-75
2022/07/17 08:00:07;;;;;;;3.33;1.40;;;17.80;71.80;;;;;;5118337;27;20585;-74
2022/07/17 08:02:34;;;;;;;4.38;1.52;;;17.90;71.90;;;;;;5119237;27;20082;-73
2022/07/17 08:04:59;;;;;;;3.67;1.45;;;17.90;72.10;;;;;;5105545;27;20047;-75
2022/07/17 08:07:26;;;;;;;4.40;1.02;;;18.00;71.40;;;;;;5103689;27;20042;-73
2022/07/17 08:09:52;;;;;;;3.05;1.13;;;18.00;71.20;;;;;;5069132;27;20039;-75
2022/07/17 08:12:18;;;;;;;4.68;1.50;;;18.10;71.00;;;;;;5069257;27;20256;-75
2022/07/17 08:14:44;;;;;;;8.30;1.63;;;18.20;70.80;;;;;;5120968;27;20131;-74
2022/07/17 08:17:09;;;;;;;3.58;1.35;;;18.30;70.80;;;;;;5085529;27;20043;-73
2022/07/17 08:19:35;;;;;;;3.25;1.40;;;18.30;69.50;;;;;;5101868;27;20569;-73
2022/07/17 08:22:01;;;;;;;4.18;1.40;;;18.30;69.90;;;;;;5094046;27;20428;-74
2022/07/17 08:24:26;;;;;;;3.15;1.30;;;18.40;70.30;;;;;;5100789;28;20069;-72
2022/07/17 08:26:52;;;;;;;5.95;1.58;;;18.50;69.80;;;;;;5086734;27;20113;-72
2022/07/17 08:29:18;;;;;;;3.60;1.55;;;18.60;69.70;;;;;;5102993;27;20080;-74
2022/07/17 08:31:44;;;;;;;3.80;1.50;;;18.70;69.00;;;;;;5120123;27;20054;-77
2022/07/17 08:34:09;;;;;;;2.72;1.00;;;18.80;69.00;;;;;;5120729;27;20035;-74
2022/07/17 08:36:35;;;;;;;2.50;1.20;;;18.90;68.50;;;;;;5119454;27;20035;-78
2022/07/17 08:39:01;;;;;;;6.20;1.60;;;18.90;66.90;;;;;;5120213;27;20060;-72
2022/07/17 08:41:28;;;;;;;3.42;1.40;;;18.90;66.90;;;;;;5118494;27;20043;-75
2022/07/17 08:43:54;;;;;;;5.40;1.50;;;19.00;68.10;;;;;;5136536;27;20049;-74
2022/07/17 08:46:24;;;;;;;3.88;1.17;;;19.10;68.10;;;;;;5087085;27;20051;-74
2022/07/17 08:48:57;;;;;;;2.45;1.20;;;19.20;67.80;;;;;;5083160;27;20051;-75
2022/07/17 08:51:24;;;;;;;2.70;1.08;;;19.20;67.40;;;;;;5083121;28;20052;-75
2022/07/17 08:53:50;;;;;;;5.13;1.17;;;19.40;67.30;;;;;;5092618;27;20070;-76
2022/07/17 08:56:15;;;;;;;10.07;1.77;;;19.60;67.10;;;;;;5084683;27;20079;-75
2022/07/17 08:58:41;;;;;;;5.22;1.77;;;19.70;66.90;;;;;;5100977;27;20047;-75
2022/07/17 09:01:07;;;;;;;4.07;1.40;;;19.70;66.10;;;;;;5089143;27;20539;-72
2022/07/17 09:03:33;;;;;;;4.45;1.52;;;19.80;66.30;;;;;;5087142;27;20544;-75
2022/07/17 09:05:59;;;;;;;6.88;2.28;;;19.90;65.90;;;;;;5100970;27;20119;-75
2022/07/17 09:08:25;;;;;;;6.95;1.23;;;20.00;64.70;;;;;;5084196;27;20114;-75
2022/07/17 09:10:53;;;;;;;3.83;1.23;;;20.00;64.30;;;;;;5099253;27;20510;-78
2022/07/17 09:13:28;;;;;;;4.20;1.50;;;20.10;64.50;;;;;;5094176;28;20040;-77
2022/07/17 09:16:12;;;;;;;7.03;1.60;;;20.20;64.10;;;;;;5093438;28;20044;-77
2022/07/17 09:18:42;;;;;;;;;;;20.20;64.60;;;;;;5093786;28;20079;-77
2022/07/17 09:21:20;;;;;;;6.97;1.80;;;20.30;65.00;;;;;;5110254;28;20230;-79
2022/07/17 09:23:45;;;;;;;9.52;1.95;;;20.40;65.00;;;;;;5092980;28;20040;-76
2022/07/17 09:26:11;;;;;;;5.35;1.45;;;20.50;64.40;;;;;;5092423;28;20082;-76
2022/07/17 09:28:46;;;;;;;5.22;1.27;;;20.60;64.20;;;;;;5092965;28;20036;-76
2022/07/17 09:31:28;;;;;;;2.65;1.05;;;20.80;62.40;;;;;;5092830;28;20462;-79
2022/07/17 09:33:54;;;;;;;2.85;1.10;;;20.70;62.10;;;;;;5059546;28;20085;-76
2022/07/17 09:36:20;;;;;;;3.15;1.33;;;20.90;62.30;;;;;;5093136;28;20124;-76
2022/07/17 09:38:48;;;;;;;3.20;1.17;;;21.00;61.60;;;;;;5059231;28;20069;-78
2022/07/17 09:41:15;;;;;;;2.92;1.30;;;21.00;61.40;;;;;;5058937;28;20619;-79
2022/07/17 09:43:44;;;;;;;3.88;1.20;;;21.00;60.70;;;;;;5092739;28;20047;-79
2022/07/17 09:46:17;;;;;;;4.88;1.70;;;21.20;60.80;;;;;;5092502;28;20083;-78
2022/07/17 09:48:51;;;;;;;4.95;1.30;;;21.30;59.90;;;;;;5092805;28;20039;-76
2022/07/17 09:51:21;;;;;;;2.65;1.50;;;21.40;59.20;;;;;;5058753;28;20079;-76
2022/07/17 09:53:50;;;;;;;2.53;1.27;;;21.50;57.90;;;;;;5092496;28;20081;-76
2022/07/17 09:56:18;;;;;;;1.73;0.93;;;21.50;58.20;;;;;;5058612;28;20048;-76
2022/07/17 09:58:49;;;;;;;4.28;1.65;;;21.60;58.70;;;;;;5092141;28;20050;-77
2022/07/17 10:01:16;;;;;;;2.65;1.20;;;21.80;59.00;;;;;;5091989;28;20040;-76
2022/07/17 10:03:43;;;;;;;2.25;1.10;;;22.00;58.30;;;;;;5092590;28;20039;-74
2022/07/17 10:06:10;;;;;;;4.45;1.45;;;22.10;58.00;;;;;;5058688;28;20438;-75
2022/07/17 10:08:37;;;;;;;4.82;1.95;;;22.20;57.70;;;;;;5091939;28;20074;-75
2022/07/17 10:11:07;;;;;;;6.82;1.35;;;22.30;56.80;;;;;;5092049;28;20496;-76
2022/07/17 10:13:44;;;;;;;2.67;1.20;;;22.30;56.20;;;;;;5092131;28;20072;-73
2022/07/17 10:16:11;;;;;;;4.30;1.33;;;22.30;56.20;;;;;;5092135;28;20078;-73
2022/07/17 10:18:44;;;;;;;1.77;1.00;;;22.30;55.70;;;;;;5092097;28;20510;-74
2022/07/17 10:21:14;;;;;;;2.28;1.58;;;22.40;55.30;;;;;;5092208;28;20105;-74
2022/07/17 10:23:41;;;;;;;3.40;1.27;;;22.40;55.10;;;;;;5092080;28;20047;-75
2022/07/17 10:26:07;;;;;;;4.57;1.58;;;22.50;55.20;;;;;;5091738;28;20126;-76
2022/07/17 10:28:44;;;;;;;2.92;1.35;;;22.50;54.70;;;;;;5092219;28;20131;-78
2022/07/17 10:31:23;;;;;;;4.35;1.33;;;22.60;54.20;;;;;;5058521;28;20074;-74
2022/07/17 10:34:05;;;;;;;4.72;1.30;;;22.60;53.70;;;;;;5092035;28;20088;-76
2022/07/17 10:36:41;;;;;;;5.10;1.58;;;22.70;54.80;;;;;;5091949;28;20079;-74
2022/07/17 10:39:18;;;;;;;3.08;1.55;;;22.70;54.60;;;;;;5092404;28;20075;-74
2022/07/17 10:41:59;;;;;;;5.15;1.80;;;22.80;53.80;;;;;;5091885;28;20131;-75
2022/07/17 10:44:31;;;;;;;2.88;1.40;;;22.90;54.60;;;;;;5091975;28;20047;-77
2022/07/17 10:46:58;;;;;;;2.60;1.15;;;22.90;54.50;;;;;;5091828;28;20044;-77
2022/07/17 10:49:25;;;;;;;3.97;1.38;;;23.00;55.10;;;;;;5092057;28;20043;-73
2022/07/17 10:51:51;;;;;;;4.65;1.60;;;23.10;55.70;;;;;;5058356;28;20039;-77
2022/07/17 10:54:18;;;;;;;5.03;1.65;;;23.30;55.30;;;;;;5091897;28;20111;-78
2022/07/17 10:56:44;;;;;;;3.92;1.52;;;23.30;55.00;;;;;;5091908;28;20051;-74
2022/07/17 10:59:10;;;;;;;3.47;1.30;;;23.50;55.40;;;;;;5091573;28;20048;-78
2022/07/17 11:01:37;;;;;;;3.03;1.35;;;23.40;53.80;;;;;;5091656;28;20071;-75
2022/07/17 11:04:06;;;;;;;5.13;1.80;;;23.70;53.90;;;;;;5093874;28;20047;-75
2022/07/17 11:06:39;;;;;;;5.20;1.88;;;23.60;53.10;;;;;;5061689;28;20047;-76
2022/07/17 11:09:10;;;;;;;3.15;1.70;;;23.50;53.70;;;;;;5095547;28;20123;-76
2022/07/17 11:11:40;;;;;;;2.80;1.67;;;23.80;54.10;;;;;;5095467;28;20077;-77
2022/07/17 11:14:12;;;;;;;3.25;1.50;;;24.00;54.70;;;;;;5095476;28;20036;-77
2022/07/17 11:16:43;;;;;;;2.13;1.25;;;24.20;54.20;;;;;;5062035;28;20466;-75
2022/07/17 11:19:10;;;;;;;5.47;1.77;;;24.30;53.20;;;;;;5095495;28;20480;-76
2022/07/17 11:21:57;;;;;;;3.45;1.90;;;24.30;53.00;;;;;;5095409;28;20036;-79
2022/07/17 11:24:23;;;;;;;4.78;2.22;;;24.60;52.70;;;;;;5077996;28;20476;-78
2022/07/17 11:26:50;;;;;;;3.60;1.67;;;24.60;53.30;;;;;;5095203;28;20130;-76
2022/07/17 11:29:16;;;;;;;3.28;1.83;;;24.60;53.00;;;;;;5095214;28;20046;-75
2022/07/17 11:31:43;;;;;;;7.38;2.47;;;24.50;52.70;;;;;;5095092;28;20039;-77
2022/07/17 11:34:11;;;;;;;2.33;1.85;;;24.50;52.40;;;;;;5095087;28;20040;-81
2022/07/17 11:36:44;;;;;;;3.63;2.15;;;24.50;52.00;;;;;;5095019;28;20044;-77
2022/07/17 11:39:11;;;;;;;3.90;1.80;;;24.60;51.50;;;;;;5095044;28;20105;-74
2022/07/17 11:41:42;;;;;;;5.30;2.15;;;24.40;51.40;;;;;;5094959;28;20105;-76
2022/07/17 11:44:11;;;;;;;2.53;1.55;;;24.80;52.00;;;;;;5094917;28;20105;-77
2022/07/17 11:46:37;;;;;;;3.17;1.77;;;25.00;51.10;;;;;;5094625;28;20550;-75
2022/07/17 11:49:04;;;;;;;4.18;1.98;;;25.10;50.90;;;;;;5061063;28;20044;-76
2022/07/17 11:51:35;;;;;;;6.80;1.95;;;25.20;50.10;;;;;;5094644;28;20480;-79
2022/07/17 11:54:15;;;;;;;4.40;2.03;;;25.20;50.10;;;;;;5094601;28;20040;-80
2022/07/17 11:56:42;;;;;;;3.20;2.00;;;25.00;49.30;;;;;;5094494;28;20040;-76
2022/07/17 11:59:09;;;;;;;3.75;1.88;;;25.20;50.30;;;;;;5094483;28;20479;-76
2022/07/17 12:01:40;;;;;;;5.78;1.95;;;25.30;49.30;;;;;;5094391;28;20036;-76
2022/07/17 12:04:09;;;;;;;2.80;2.13;;;25.40;49.00;;;;;;5094399;28;20123;-75
2022/07/17 12:06:35;;;;;;;2.70;1.77;;;25.40;48.40;;;;;;5094494;28;20086;-79
2022/07/17 12:09:01;;;;;;;5.55;2.40;;;25.30;48.90;;;;;;5094393;28;20090;-75
2022/07/17 12:11:27;;;;;;;4.57;2.60;;;25.30;48.70;;;;;;5094631;28;20040;-76
2022/07/17 12:13:52;;;;;;;3.65;1.95;;;25.40;48.80;;;;;;5094094;28;20476;-76
2022/07/17 12:16:30;;;;;;;3.42;1.83;;;25.50;47.90;;;;;;5093433;28;20127;-80
2022/07/17 12:19:01;;;;;;;5.20;1.88;;;25.50;48.60;;;;;;5094414;28;20036;-76
2022/07/17 12:21:27;;;;;;;3.67;1.98;;;25.50;47.90;;;;;;5060556;28;20048;-76
2022/07/17 12:24:00;;;;;;;3.15;2.10;;;25.50;49.10;;;;;;5094076;28;20492;-77
2022/07/17 12:26:26;;;;;;;4.70;2.20;;;25.80;49.70;;;;;;5093797;28;20056;-75
2022/07/17 12:28:52;;;;;;;4.55;2.10;;;26.10;48.90;;;;;;5076849;28;20044;-76
2022/07/17 12:31:20;;;;;;;5.53;2.20;;;26.20;46.80;;;;;;5093903;28;20051;-77
2022/07/17 12:33:46;;;;;;;4.82;2.38;;;26.20;46.90;;;;;;5060521;28;20503;-76
2022/07/17 12:36:12;;;;;;;4.07;2.13;;;26.10;47.20;;;;;;5060258;28;20044;-75
2022/07/17 12:38:38;;;;;;;5.80;2.05;;;26.10;47.10;;;;;;5060234;28;20036;-73
2022/07/17 12:41:04;;;;;;;5.28;1.98;;;26.20;47.70;;;;;;5060086;28;20480;-74
2022/07/17 12:43:30;;;;;;;6.63;2.70;;;26.20;48.00;;;;;;5093577;28;20048;-74
2022/07/17 12:45:56;;;;;;;3.47;1.70;;;26.30;48.60;;;;;;5093542;28;20097;-75